Ocoee 1 Observed Data For Previous 48 Hours

Caption
Day and Hour Reservoir Elevation (behind dam)* Tailwater Elevation (below dam)* Average Hourly Discharge*
9/20/2018 2 AM EDT 828.27 713.20 0
9/20/2018 3 AM EDT 828.28 713.18 0
9/20/2018 4 AM EDT 828.28 713.50 14
9/20/2018 5 AM EDT 828.26 713.80 593
9/20/2018 6 AM EDT 828.26 713.19 0
9/20/2018 7 AM EDT 828.26 713.18 0
9/20/2018 8 AM EDT 828.26 713.51 16
9/20/2018 9 AM EDT 828.24 713.86 601
9/20/2018 10 AM EDT 828.28 713.20 0
9/20/2018 11 AM EDT 828.30 713.18 0
9/20/2018 12 PM EDT 828.34 713.44 11
9/20/2018 1 PM EDT 828.33 716.11 1,412
9/20/2018 2 PM EDT 828.29 717.89 2,230
9/20/2018 3 PM EDT 828.22 717.91 2,747
9/20/2018 4 PM EDT 828.15 717.97 2,727
9/20/2018 5 PM EDT 828.10 717.93 2,742
9/20/2018 6 PM EDT 828.05 717.86 2,736
9/20/2018 7 PM EDT 828.00 717.92 2,745
9/20/2018 8 PM EDT 827.95 717.77 2,732
9/20/2018 9 PM EDT 827.96 715.85 1,256
9/20/2018 10 PM EDT 828.02 713.22 6
9/20/2018 11 PM EDT 828.08 713.19 0
9/21/2018 12 AM EDT 828.09 713.44 10
9/21/2018 1 AM EDT 828.07 713.42 604
9/21/2018 2 AM EDT 828.07 713.19 0
9/21/2018 3 AM EDT 828.07 713.19 0
9/21/2018 4 AM EDT 828.07 713.46 11
9/21/2018 5 AM EDT 828.05 713.42 602
9/21/2018 6 AM EDT 828.06 713.19 0
9/21/2018 7 AM EDT 828.05 713.19 0
9/21/2018 8 AM EDT 828.09 713.47 12
9/21/2018 9 AM EDT 828.10 713.90 595
9/21/2018 10 AM EDT 828.14 713.20 0
9/21/2018 11 AM EDT 828.18 713.18 0
9/21/2018 12 PM EDT 828.21 713.37 2
9/21/2018 1 PM EDT 828.19 717.66 1,601
9/21/2018 2 PM EDT 828.09 718.04 2,885
9/21/2018 3 PM EDT 828.03 718.03 2,842
9/21/2018 4 PM EDT 827.96 718.04 2,823
9/21/2018 5 PM EDT 828.07 718.04 2,839
9/21/2018 6 PM EDT 827.87 718.02 2,827
9/21/2018 7 PM EDT 827.82 718.02 2,824
9/21/2018 8 PM EDT 827.72 718.05 2,837
9/21/2018 9 PM EDT 827.76 716.08 1,380
9/21/2018 10 PM EDT 827.82 713.23 11
9/21/2018 11 PM EDT 827.87 713.19 0
9/22/2018 12 AM EDT 827.89 713.40 10
9/22/2018 1 AM EDT 827.93 713.79 599
9/22/2018 2 AM EDT 827.97 713.20 0
9/22/2018 3 AM EDT 827.99 713.19 0
9/22/2018 4 AM EDT 827.99 713.46 12
9/22/2018 5 AM EDT 827.96 713.82 601
9/22/2018 6 AM EDT 827.96 713.20 0
9/22/2018 7 AM EDT 827.96 713.19 0
9/22/2018 8 AM EDT 827.96 713.49 13
9/22/2018 9 AM EDT 827.94 713.85 604
9/22/2018 10 AM EDT 827.94 713.20 0
9/22/2018 11 AM EDT 827.98 713.19 0
9/22/2018 12 PM EDT 828.02 713.49 14
9/22/2018 1 PM EDT 827.96 714.99 719
9/22/2018 2 PM EDT 828.02 715.11 726
9/22/2018 3 PM EDT 828.07 716.12 1,407
9/22/2018 4 PM EDT 828.03 716.12 1,409
9/22/2018 5 PM EDT 828.02 716.06 1,383

Elevations are in feet above sea level. Discharges are in cubic feet per second and are reported at the end of the hour.